Time;durP1;ratioP1;P1;durP2;ratioP2;P2;SDS_P1;SDS_P2;PMS_P1;PMS_P2;Temp;Humidity;BMP_temperature;BMP_pressure;BME280_temperature;BME280_humidity;BME280_pressure;Samples;Min_cycle;Max_cycle;Signal;HPM_P1;HPM_P2
2022/07/25 00:01:54;;;;;;;3.88;2.10;;;;;28.40;100951.00;;;;5046501;28;20231;-76
2022/07/25 00:04:21;;;;;;;2.60;2.03;;;;;28.30;100945.00;;;;5049246;28;20203;-76
2022/07/25 00:06:49;;;;;;;2.00;1.88;;;;;28.30;100944.00;;;;5049653;28;20203;-77
2022/07/25 00:09:17;;;;;;;3.45;2.22;;;;;28.30;100939.00;;;;5049126;28;20200;-76
2022/07/25 00:11:45;;;;;;;2.10;1.90;;;;;28.30;100937.00;;;;5049695;28;20195;-76
2022/07/25 00:14:12;;;;;;;2.80;2.10;;;;;28.30;100928.00;;;;5049218;28;20191;-77
2022/07/25 00:16:40;;;;;;;2.78;2.40;;;;;28.30;100932.00;;;;5049658;28;20211;-77
2022/07/25 00:19:07;;;;;;;3.40;2.20;;;;;28.20;100929.00;;;;5047347;28;20203;-77
2022/07/25 00:21:34;;;;;;;2.40;2.20;;;;;28.20;100923.00;;;;5049418;28;20223;-77
2022/07/25 00:24:01;;;;;;;2.10;1.90;;;;;28.20;100908.00;;;;5049149;28;20682;-77
2022/07/25 00:26:30;;;;;;;3.88;2.28;;;;;28.10;100907.00;;;;5048472;28;20199;-77
2022/07/25 00:28:57;;;;;;;2.60;2.10;;;;;28.10;100912.00;;;;5049051;28;20195;-77
2022/07/25 00:31:24;;;;;;;2.55;2.10;;;;;28.10;100901.00;;;;5048476;28;20206;-77
2022/07/25 00:33:52;;;;;;;3.85;2.50;;;;;28.10;100900.00;;;;5049127;28;20195;-77
2022/07/25 00:36:19;;;;;;;4.28;2.70;;;;;28.10;100894.00;;;;5047643;28;20579;-77
2022/07/25 00:38:46;;;;;;;2.38;2.10;;;;;28.10;100899.00;;;;5048918;28;20207;-77
2022/07/25 00:41:13;;;;;;;4.25;2.65;;;;;28.10;100893.00;;;;5048482;28;20219;-77
2022/07/25 00:43:44;;;;;;;2.47;2.28;;;;;28.00;100889.00;;;;5048836;28;20198;-77
2022/07/25 00:46:13;;;;;;;2.78;2.17;;;;;28.00;100888.00;;;;5047626;28;20191;-75
2022/07/25 00:48:41;;;;;;;2.88;2.22;;;;;28.00;100883.00;;;;5048613;28;20673;-75
2022/07/25 00:51:08;;;;;;;2.63;2.35;;;;;28.00;100879.00;;;;5048161;28;20222;-75
2022/07/25 00:53:36;;;;;;;3.50;2.67;;;;;27.90;100874.00;;;;5039964;28;20262;-75
2022/07/25 00:56:04;;;;;;;2.90;2.47;;;;;27.90;100864.00;;;;5045548;28;20227;-75
2022/07/25 00:58:32;;;;;;;3.03;2.72;;;;;27.90;100865.00;;;;5039662;28;20249;-75
2022/07/25 01:01:01;;;;;;;3.38;2.25;;;;;27.90;100860.00;;;;5047468;28;20533;-75
2022/07/25 01:03:29;;;;;;;3.42;2.72;;;;;27.90;100857.00;;;;5047929;28;20662;-76
2022/07/25 01:05:56;;;;;;;4.47;2.85;;;;;27.90;100860.00;;;;5048557;28;20207;-76
2022/07/25 01:08:23;;;;;;;3.55;2.78;;;;;27.80;100855.00;;;;5047877;28;20210;-76
2022/07/25 01:10:51;;;;;;;4.43;3.20;;;;;27.80;100851.00;;;;5037694;28;20223;-76
2022/07/25 01:13:18;;;;;;;3.65;2.80;;;;;27.80;100850.00;;;;5028420;28;20197;-77
2022/07/25 01:15:45;;;;;;;3.28;2.95;;;;;27.80;100847.00;;;;5042862;28;20207;-76
2022/07/25 01:18:14;;;;;;;3.03;2.72;;;;;27.80;100848.00;;;;5048155;28;20203;-76
2022/07/25 01:20:43;;;;;;;3.83;3.13;;;;;27.70;100848.00;;;;5047322;28;20215;-77
2022/07/25 01:23:10;;;;;;;4.97;3.38;;;;;27.80;100843.00;;;;5047932;28;20191;-76
2022/07/25 01:25:38;;;;;;;3.70;2.65;;;;;27.70;100839.00;;;;5047949;28;20203;-76
2022/07/25 01:28:08;;;;;;;4.18;3.80;;;;;27.70;100832.00;;;;5047745;28;20207;-76
2022/07/25 01:30:35;;;;;;;5.82;3.22;;;;;27.70;100834.00;;;;5034542;28;20215;-76
2022/07/25 01:33:02;;;;;;;4.70;3.10;;;;;27.70;100830.00;;;;5043037;28;20195;-77
2022/07/25 01:35:30;;;;;;;5.10;3.78;;;;;27.70;100827.00;;;;5046641;28;20202;-76
2022/07/25 01:37:58;;;;;;;4.93;3.58;;;;;27.70;100828.00;;;;5047374;28;20199;-76
2022/07/25 01:40:26;;;;;;;3.30;3.00;;;;;27.70;100824.00;;;;5047647;28;20207;-76
2022/07/25 01:42:53;;;;;;;5.03;3.42;;;;;27.70;100827.00;;;;5047436;28;20206;-76
2022/07/25 01:45:20;;;;;;;3.67;3.13;;;;;27.60;100837.00;;;;5045896;28;20203;-78
2022/07/25 01:47:49;;;;;;;3.80;3.35;;;;;27.60;100830.00;;;;5047515;28;20203;-77
2022/07/25 01:50:16;;;;;;;5.25;3.58;;;;;27.60;100829.00;;;;5046929;28;20204;-77
2022/07/25 01:52:44;;;;;;;3.92;3.53;;;;;27.60;100829.00;;;;5047520;28;20192;-77
2022/07/25 01:55:12;;;;;;;3.28;2.97;;;;;27.60;100820.00;;;;5047428;28;20235;-77
2022/07/25 01:57:40;;;;;;;4.03;3.33;;;;;27.60;100821.00;;;;5047693;28;20210;-76
2022/07/25 02:00:12;;;;;;;4.22;2.88;;;;;27.60;100816.00;;;;5047092;28;20199;-77
2022/07/25 02:02:39;;;;;;;3.72;3.35;;;;;27.60;100813.00;;;;5049849;28;20223;-77
2022/07/25 02:05:12;;;;;;;3.58;3.17;;;;;27.50;100809.00;;;;5047191;28;20192;-77
2022/07/25 02:07:39;;;;;;;5.05;3.85;;;;;27.50;100808.00;;;;5047305;28;20290;-77
2022/07/25 02:10:08;;;;;;;4.30;3.75;;;;;27.50;100802.00;;;;5047664;28;20196;-76
2022/07/25 02:12:36;;;;;;;3.33;2.67;;;;;27.50;100792.00;;;;5049723;28;20192;-77
2022/07/25 02:15:04;;;;;;;3.90;3.50;;;;;27.50;100792.00;;;;5051067;28;20198;-77
2022/07/25 02:17:32;;;;;;;4.78;3.50;;;;;27.50;100792.00;;;;5050093;28;20200;-77
2022/07/25 02:19:59;;;;;;;3.78;3.20;;;;;27.50;100794.00;;;;5039981;28;20219;-77
2022/07/25 02:22:26;;;;;;;3.90;3.35;;;;;27.40;100802.00;;;;5050563;28;20227;-77
2022/07/25 02:24:53;;;;;;;3.45;3.15;;;;;27.40;100802.00;;;;5051052;28;20210;-77
2022/07/25 02:27:21;;;;;;;3.30;3.00;;;;;27.40;100789.00;;;;5051601;28;20816;-77
2022/07/25 02:29:49;;;;;;;4.47;4.07;;;;;27.40;100791.00;;;;5050929;28;20283;-74
2022/07/25 02:32:17;;;;;;;3.92;3.40;;;;;27.40;100785.00;;;;5050426;28;20203;-74
2022/07/25 02:34:44;;;;;;;3.53;3.22;;;;;27.40;100776.00;;;;5051088;28;20287;-75
2022/07/25 02:37:12;;;;;;;3.58;2.92;;;;;27.30;100773.00;;;;5050876;28;20412;-74
2022/07/25 02:39:39;;;;;;;4.07;3.03;;;;;27.30;100770.00;;;;5051548;28;20257;-75
2022/07/25 02:42:06;;;;;;;4.10;2.88;;;;;27.30;100772.00;;;;5050452;28;20590;-76
2022/07/25 02:44:34;;;;;;;5.00;3.65;;;;;27.30;100765.00;;;;5051621;28;20196;-76
2022/07/25 02:47:02;;;;;;;3.85;3.42;;;;;27.30;100759.00;;;;5050761;28;20199;-76
2022/07/25 02:49:29;;;;;;;3.97;3.17;;;;;27.30;100758.00;;;;5050031;28;20206;-76
2022/07/25 02:51:57;;;;;;;4.18;3.50;;;;;27.20;100753.00;;;;5046748;28;20227;-76
2022/07/25 02:54:24;;;;;;;3.78;3.33;;;;;27.20;100748.00;;;;5042347;28;20604;-76
2022/07/25 02:56:52;;;;;;;4.07;3.35;;;;;27.20;100747.00;;;;5050862;28;20729;-76
2022/07/25 02:59:19;;;;;;;3.33;3.03;;;;;27.20;100743.00;;;;5050924;28;20200;-76
2022/07/25 03:01:46;;;;;;;4.20;3.30;;;;;27.20;100744.00;;;;5050819;28;20211;-76
2022/07/25 03:04:15;;;;;;;4.05;3.63;;;;;27.20;100734.00;;;;5049451;28;20195;-76
2022/07/25 03:06:42;;;;;;;4.65;3.30;;;;;27.20;100735.00;;;;5050359;28;20237;-76
2022/07/25 03:09:09;;;;;;;3.08;2.78;;;;;27.20;100734.00;;;;5045984;28;20204;-76
2022/07/25 03:11:37;;;;;;;4.25;3.50;;;;;27.10;100735.00;;;;5051124;28;20195;-76
2022/07/25 03:14:04;;;;;;;4.05;3.65;;;;;27.10;100738.00;;;;5050570;28;20191;-76
2022/07/25 03:16:31;;;;;;;3.95;3.15;;;;;27.10;100730.00;;;;5048417;28;20188;-76
2022/07/25 03:18:58;;;;;;;5.65;3.38;;;;;27.10;100723.00;;;;5050369;28;20196;-76
2022/07/25 03:21:27;;;;;;;3.65;3.33;;;;;27.00;100717.00;;;;5050048;28;20216;-76
2022/07/25 03:23:54;;;;;;;4.20;3.42;;;;;27.10;100716.00;;;;5049579;28;20200;-76
2022/07/25 03:26:21;;;;;;;3.33;3.03;;;;;27.00;100713.00;;;;5043571;28;20195;-76
2022/07/25 03:28:49;;;;;;;4.28;3.72;;;;;27.00;100712.00;;;;5030109;28;20211;-76
2022/07/25 03:31:16;;;;;;;3.33;3.03;;;;;27.00;100712.00;;;;5048585;28;20677;-76
2022/07/25 03:33:43;;;;;;;4.22;3.60;;;;;27.00;100710.00;;;;5050096;28;20196;-76
2022/07/25 03:36:11;;;;;;;5.43;3.65;;;;;27.00;100705.00;;;;5047881;28;20206;-76
2022/07/25 03:38:39;;;;;;;4.68;4.07;;;;;26.90;100705.00;;;;5050408;28;20215;-76
2022/07/25 03:41:07;;;;;;;5.30;3.60;;;;;27.00;100708.00;;;;5049680;28;20207;-76
2022/07/25 03:43:34;;;;;;;4.38;3.95;;;;;26.90;100708.00;;;;5042122;28;20300;-76
2022/07/25 03:46:01;;;;;;;5.07;4.55;;;;;26.90;100716.00;;;;5046126;28;20648;-76
2022/07/25 03:48:29;;;;;;;5.60;4.20;;;;;26.90;100719.00;;;;5049739;28;20293;-76
2022/07/25 03:50:57;;;;;;;5.70;4.35;;;;;26.90;100710.00;;;;5049780;28;20220;-76
2022/07/25 03:53:24;;;;;;;5.40;4.55;;;;;26.90;100700.00;;;;5049630;28;20205;-76
2022/07/25 03:55:52;;;;;;;5.50;5.00;;;;;26.90;100702.00;;;;5049501;28;20232;-76
2022/07/25 03:58:20;;;;;;;5.10;4.63;;;;;26.90;100699.00;;;;5048408;28;20666;-76
2022/07/25 04:00:47;;;;;;;5.95;4.22;;;;;26.90;100698.00;;;;5045047;28;20196;-76
2022/07/25 04:03:14;;;;;;;4.90;4.50;;;;;26.90;100687.00;;;;5049098;28;20227;-76
2022/07/25 04:05:42;;;;;;;5.13;4.20;;;;;26.90;100689.00;;;;5050144;28;20191;-76
2022/07/25 04:08:10;;;;;;;4.93;4.03;;;;;26.90;100696.00;;;;5049827;28;20200;-76
2022/07/25 04:10:37;;;;;;;4.70;4.20;;;;;26.90;100696.00;;;;5050385;28;20238;-76
2022/07/25 04:13:07;;;;;;;8.05;4.75;;;;;26.80;100690.00;;;;5050394;28;20203;-76
2022/07/25 04:15:34;;;;;;;5.72;5.03;;;;;26.90;100695.00;;;;5049941;28;20245;-76
2022/07/25 04:18:01;;;;;;;5.25;4.75;;;;;26.90;100697.00;;;;5037371;28;20197;-76
2022/07/25 04:20:28;;;;;;;5.57;4.97;;;;;26.90;100697.00;;;;5038334;28;20199;-76
2022/07/25 04:22:56;;;;;;;4.78;4.28;;;;;26.90;100699.00;;;;5049712;28;20238;-76
2022/07/25 04:25:23;;;;;;;5.40;4.45;;;;;26.90;100699.00;;;;5049716;28;20677;-76
2022/07/25 04:27:50;;;;;;;5.40;4.18;;;;;26.90;100698.00;;;;5049630;28;20199;-76
2022/07/25 04:30:19;;;;;;;6.05;4.70;;;;;26.90;100695.00;;;;5049525;28;20195;-76
2022/07/25 04:32:46;;;;;;;5.78;4.45;;;;;26.90;100697.00;;;;5048923;28;20199;-76
2022/07/25 04:35:14;;;;;;;5.25;4.57;;;;;26.90;100695.00;;;;5043777;28;20196;-76
2022/07/25 04:37:41;;;;;;;5.43;4.82;;;;;26.90;100697.00;;;;5048596;28;20581;-75
2022/07/25 04:40:10;;;;;;;4.70;4.28;;;;;26.90;100702.00;;;;5048641;28;20199;-76
2022/07/25 04:42:37;;;;;;;5.15;4.47;;;;;26.90;100696.00;;;;5048053;28;20231;-76
2022/07/25 04:45:05;;;;;;;5.53;4.60;;;;;26.90;100692.00;;;;5048965;28;20192;-76
2022/07/25 04:47:34;;;;;;;5.55;4.72;;;;;26.90;100689.00;;;;5048672;28;20401;-76
2022/07/25 04:50:01;;;;;;;6.00;4.43;;;;;26.90;100693.00;;;;5048700;28;20200;-77
2022/07/25 04:52:28;;;;;;;6.45;4.25;;;;;27.00;100701.00;;;;5044002;28;20227;-77
2022/07/25 04:54:55;;;;;;;5.97;4.65;;;;;27.00;100689.00;;;;5048225;28;20220;-77
2022/07/25 04:57:23;;;;;;;5.10;4.60;;;;;27.00;100691.00;;;;5049059;28;20192;-77
2022/07/25 04:59:50;;;;;;;5.45;4.63;;;;;27.00;100683.00;;;;5048543;28;20196;-77
2022/07/25 05:02:17;;;;;;;5.18;4.75;;;;;27.00;100677.00;;;;5048166;28;20223;-77
2022/07/25 05:04:46;;;;;;;5.07;4.57;;;;;27.10;100679.00;;;;5048726;28;20202;-77
2022/07/25 05:07:13;;;;;;;5.10;4.65;;;;;27.10;100685.00;;;;5047940;28;20212;-77
2022/07/25 05:09:41;;;;;;;6.32;4.68;;;;;27.10;100674.00;;;;5035868;28;20195;-77
2022/07/25 05:12:08;;;;;;;4.97;3.95;;;;;27.10;100673.00;;;;5048709;28;20199;-77
2022/07/25 05:14:36;;;;;;;13.45;4.85;;;;;27.20;100668.00;;;;5048118;28;20211;-77
2022/07/25 05:17:03;;;;;;;6.10;4.80;;;;;27.20;100677.00;;;;5048129;28;20699;-77
2022/07/25 05:19:30;;;;;;;5.22;4.72;;;;;27.20;100685.00;;;;5048058;28;20199;-76
2022/07/25 05:21:59;;;;;;;7.35;4.88;;;;;27.20;100696.00;;;;5047129;28;20582;-77
2022/07/25 05:24:26;;;;;;;5.43;4.93;;;;;27.20;100690.00;;;;5047999;28;20235;-76
2022/07/25 05:26:53;;;;;;;5.30;4.80;;;;;27.30;100682.00;;;;5047428;28;20215;-77
2022/07/25 05:29:21;;;;;;;6.18;5.20;;;;;27.30;100685.00;;;;5047635;28;20202;-77
2022/07/25 05:31:48;;;;;;;8.00;4.70;;;;;27.30;100686.00;;;;5047730;28;20186;-77
2022/07/25 05:34:15;;;;;;;5.50;4.93;;;;;27.40;100684.00;;;;5033779;28;20620;-77
2022/07/25 05:36:43;;;;;;;5.28;4.78;;;;;27.40;100681.00;;;;5047728;28;20200;-77
2022/07/25 05:39:11;;;;;;;5.68;5.07;;;;;27.50;100683.00;;;;5048149;28;20202;-77
2022/07/25 05:41:39;;;;;;;7.30;4.65;;;;;27.50;100688.00;;;;5046729;28;20569;-77
2022/07/25 05:44:06;;;;;;;5.10;4.55;;;;;27.60;100684.00;;;;5039076;28;20192;-77
2022/07/25 05:46:34;;;;;;;5.22;4.60;;;;;27.60;100680.00;;;;5047359;28;20721;-77
2022/07/25 05:49:04;;;;;;;9.27;5.72;;;;;27.60;100682.00;;;;5047778;28;20238;-77
2022/07/25 05:51:31;;;;;;;5.22;4.60;;;;;27.70;100686.00;;;;5048123;28;20223;-77
2022/07/25 05:53:58;;;;;;;12.13;5.18;;;;;27.70;100686.00;;;;5047650;28;20199;-77
2022/07/25 05:56:28;;;;;;;6.78;5.15;;;;;27.80;100706.00;;;;5046462;28;20226;-77
2022/07/25 05:58:57;;;;;;;5.55;4.40;;;;;27.80;100708.00;;;;5045893;28;20203;-77
2022/07/25 06:01:24;;;;;;;7.80;5.03;;;;;27.80;100710.00;;;;5047383;28;20204;-77
2022/07/25 06:03:51;;;;;;;6.22;4.43;;;;;27.80;100709.00;;;;5046587;28;20258;-77
2022/07/25 06:06:19;;;;;;;5.53;4.57;;;;;27.80;100710.00;;;;5047447;28;20195;-77
2022/07/25 06:08:46;;;;;;;5.35;4.72;;;;;27.80;100713.00;;;;5047978;28;20196;-76
2022/07/25 06:11:13;;;;;;;6.85;4.72;;;;;27.80;100714.00;;;;5047330;28;20208;-77
2022/07/25 06:13:42;;;;;;;8.98;4.95;;;;;27.90;100709.00;;;;5048247;28;20200;-77
2022/07/25 06:16:09;;;;;;;5.97;4.88;;;;;27.90;100710.00;;;;5042228;28;20212;-77
2022/07/25 06:18:36;;;;;;;7.50;4.75;;;;;27.90;100704.00;;;;5027150;28;20195;-77
2022/07/25 06:21:05;;;;;;;6.03;5.07;;;;;28.00;100709.00;;;;5043772;28;20574;-77
2022/07/25 06:23:32;;;;;;;7.00;4.82;;;;;28.00;100706.00;;;;5047175;28;20223;-77
2022/07/25 06:25:59;;;;;;;7.53;4.57;;;;;28.10;100707.00;;;;5046652;28;20211;-77
2022/07/25 06:28:27;;;;;;;5.63;4.82;;;;;28.20;100703.00;;;;5047597;28;20191;-77
2022/07/25 06:30:56;;;;;;;4.65;4.13;;;;;28.20;100707.00;;;;5047338;28;20204;-77
2022/07/25 06:33:23;;;;;;;8.60;4.90;;;;;28.30;100707.00;;;;5045195;28;20217;-77
2022/07/25 06:35:50;;;;;;;5.03;3.92;;;;;28.30;100708.00;;;;5046078;28;20215;-77
2022/07/25 06:38:18;;;;;;;5.95;3.88;;;;;28.30;100705.00;;;;5035570;28;20204;-77
2022/07/25 06:40:45;;;;;;;4.25;3.10;;;;;28.40;100700.00;;;;5041040;28;20195;-77
2022/07/25 06:43:13;;;;;;;4.55;3.85;;;;;28.40;100706.00;;;;5047327;28;20311;-77
2022/07/25 06:45:45;;;;;;;5.43;3.80;;;;;28.40;100714.00;;;;5046008;28;20222;-77
2022/07/25 06:48:14;;;;;;;5.63;3.78;;;;;28.50;100718.00;;;;5046708;28;20200;-76
2022/07/25 06:50:41;;;;;;;7.32;3.30;;;;;28.60;100724.00;;;;5044671;28;20227;-77
2022/07/25 06:53:09;;;;;;;4.05;3.47;;;;;28.60;100721.00;;;;5046711;28;20202;-77
2022/07/25 06:55:36;;;;;;;6.72;3.80;;;;;28.70;100709.00;;;;5047272;28;20223;-76
2022/07/25 06:58:04;;;;;;;4.43;3.97;;;;;28.80;100714.00;;;;5047345;28;20207;-76
2022/07/25 07:00:31;;;;;;;5.80;3.45;;;;;28.80;100711.00;;;;5050428;28;20194;-77
2022/07/25 07:03:01;;;;;;;7.13;3.67;;;;;28.90;100710.00;;;;5050344;28;20223;-77
2022/07/25 07:05:31;;;;;;;2.65;2.45;;;;;28.90;100710.00;;;;5050903;28;20202;-76
2022/07/25 07:08:00;;;;;;;3.33;3.03;;;;;28.90;100715.00;;;;5038314;28;20215;-76
2022/07/25 07:10:28;;;;;;;3.10;2.80;;;;;28.90;100718.00;;;;5042229;28;20210;-77
2022/07/25 07:13:04;;;;;;;3.67;2.50;;;;;28.90;100708.00;;;;5051437;28;20195;-76
2022/07/25 07:15:32;;;;;;;2.55;2.28;;;;;28.90;100711.00;;;;5048679;28;20204;-76
2022/07/25 07:18:00;;;;;;;2.30;1.92;;;;;28.90;100710.00;;;;5043197;28;21021;-77
2022/07/25 07:20:28;;;;;;;3.28;1.90;;;;;29.00;100706.00;;;;5048152;28;20206;-76
2022/07/25 07:22:55;;;;;;;2.97;2.00;;;;;28.90;100711.00;;;;5031067;28;20228;-77
2022/07/25 07:25:23;;;;;;;2.55;1.90;;;;;29.00;100706.00;;;;5045532;28;20214;-76
2022/07/25 07:27:51;;;;;;;1.85;1.45;;;;;29.00;100707.00;;;;5050796;28;20219;-77
2022/07/25 07:30:19;;;;;;;3.30;1.80;;;;;29.00;100702.00;;;;5051107;28;20199;-75
2022/07/25 07:32:46;;;;;;;2.90;1.70;;;;;29.00;100702.00;;;;5045755;28;20196;-75
2022/07/25 07:35:15;;;;;;;1.20;1.10;;;;;29.00;100702.00;;;;5050667;28;20199;-76
2022/07/25 07:37:44;;;;;;;1.65;1.20;;;;;29.00;100708.00;;;;5051022;28;20678;-76
2022/07/25 07:40:13;;;;;;;2.13;1.33;;;;;29.00;100709.00;;;;5051438;28;20693;-76
2022/07/25 07:42:41;;;;;;;3.08;1.25;;;;;29.00;100711.00;;;;5050545;28;20223;-75
2022/07/25 07:45:13;;;;;;;1.10;1.00;;;;;29.00;100707.00;;;;5050424;28;20196;-76
2022/07/25 07:47:41;;;;;;;2.22;1.20;;;;;29.10;100704.00;;;;5051928;28;20550;-76
2022/07/25 07:50:10;;;;;;;2.30;1.00;;;;;29.10;100707.00;;;;5051634;28;20191;-76
2022/07/25 07:52:37;;;;;;;1.83;1.45;;;;;29.10;100716.00;;;;5050468;28;20351;-76
2022/07/25 07:57:53;;;;;;;0.98;0.70;;;;;29.20;100713.00;;;;5049038;28;20215;-76
2022/07/25 08:00:20;;;;;;;1.65;0.90;;;;;29.20;100705.00;;;;5051378;28;20200;-76
2022/07/25 08:02:49;;;;;;;2.00;1.00;;;;;29.30;100713.00;;;;5051116;28;20704;-75
2022/07/25 08:05:22;;;;;;;1.05;0.80;;;;;29.20;100716.00;;;;5051113;28;20596;-77
2022/07/25 08:07:50;;;;;;;2.67;0.82;;;;;29.30;100714.00;;;;5031106;28;20200;-76
2022/07/25 08:10:20;;;;;;;1.70;0.60;;;;;29.40;100711.00;;;;5041001;28;20199;-77
2022/07/25 08:12:48;;;;;;;0.68;0.55;;;;;29.50;100714.00;;;;5052444;28;20576;-77
2022/07/25 08:15:16;;;;;;;0.88;0.70;;;;;29.60;100710.00;;;;5052545;28;20199;-77
2022/07/25 08:17:44;;;;;;;0.77;0.50;;;;;29.70;100713.00;;;;5051930;28;20196;-76
2022/07/25 08:20:12;;;;;;;0.77;0.60;;;;;29.70;100717.00;;;;5050242;28;20192;-76
2022/07/25 08:22:41;;;;;;;1.05;0.30;;;;;29.80;100724.00;;;;5051145;28;20575;-77
2022/07/25 08:25:10;;;;;;;1.52;0.60;;;;;29.80;100730.00;;;;5049533;28;20202;-77
2022/07/25 08:27:39;;;;;;;2.10;0.50;;;;;29.80;100729.00;;;;5049548;28;20606;-77
2022/07/25 08:30:08;;;;;;;0.70;0.47;;;;;29.80;100732.00;;;;5048674;28;20203;-77
2022/07/25 08:32:45;;;;;;;0.98;0.50;;;;;29.80;100724.00;;;;5041505;28;20208;-78
2022/07/25 08:35:13;;;;;;;2.15;0.60;;;;;29.70;100737.00;;;;5048953;28;20199;-74
2022/07/25 08:37:40;;;;;;;2.58;1.25;;;;;29.70;100739.00;;;;5047511;28;20669;-75
2022/07/25 08:40:08;;;;;;;1.23;0.40;;;;;29.70;100733.00;;;;5048401;28;20203;-76
2022/07/25 08:42:36;;;;;;;2.70;0.65;;;;;29.60;100735.00;;;;5048683;28;20658;-76
2022/07/25 08:45:07;;;;;;;0.95;0.50;;;;;29.60;100738.00;;;;5048250;28;20195;-76
2022/07/25 08:47:35;;;;;;;1.00;0.60;;;;;29.60;100739.00;;;;5048234;28;20192;-76
2022/07/25 08:50:04;;;;;;;0.80;0.63;;;;;29.70;100732.00;;;;5042207;28;20199;-76
2022/07/25 08:52:33;;;;;;;1.20;0.77;;;;;29.90;100729.00;;;;5048402;28;20739;-75
2022/07/25 08:55:02;;;;;;;1.67;0.55;;;;;29.90;100726.00;;;;5048596;28;20238;-75
2022/07/25 08:57:29;;;;;;;1.42;0.65;;;;;30.00;100732.00;;;;5048564;28;20199;-76
2022/07/25 09:00:00;;;;;;;3.63;0.98;;;;;30.10;100729.00;;;;5048470;28;20731;-76
2022/07/25 09:02:29;;;;;;;1.85;0.80;;;;;30.10;100734.00;;;;5048347;28;20207;-76
2022/07/25 09:04:58;;;;;;;0.85;0.60;;;;;30.20;100728.00;;;;5048697;28;20234;-76
2022/07/25 09:07:33;;;;;;;4.82;1.10;;;;;30.20;100725.00;;;;5034087;28;20212;-76
2022/07/25 09:10:11;;;;;;;2.70;0.77;;;;;30.30;100736.00;;;;5034804;28;20256;-76
2022/07/25 09:12:38;;;;;;;2.53;1.10;;;;;30.20;100733.00;;;;5048552;28;20199;-76
2022/07/25 09:15:07;;;;;;;1.23;0.90;;;;;30.20;100738.00;;;;5047163;28;20227;-76
2022/07/25 09:17:36;;;;;;;1.35;0.85;;;;;30.20;100735.00;;;;5047849;28;20204;-76
2022/07/25 09:20:05;;;;;;;1.88;0.75;;;;;30.20;100747.00;;;;5048116;28;20226;-77
2022/07/25 09:22:42;;;;;;;4.30;0.82;;;;;30.20;100739.00;;;;5047094;28;20318;-76
2022/07/25 09:25:20;;;;;;;6.07;0.85;;;;;30.10;100741.00;;;;5033175;28;20206;-75
2022/07/25 09:27:48;;;;;;;3.83;0.90;;;;;30.20;100735.00;;;;5047652;28;20204;-76
2022/07/25 09:30:16;;;;;;;3.40;1.00;;;;;30.20;100743.00;;;;5047703;28;20206;-76
2022/07/25 09:32:45;;;;;;;1.63;0.70;;;;;30.20;100749.00;;;;5048573;28;20557;-76
2022/07/25 09:35:12;;;;;;;1.50;0.77;;;;;30.20;100753.00;;;;5047943;28;20210;-76
2022/07/25 09:37:40;;;;;;;2.28;0.73;;;;;30.20;100748.00;;;;5047579;28;20206;-76
2022/07/25 09:40:15;;;;;;;6.35;1.83;;;;;30.10;100760.00;;;;5042990;28;20204;-76
2022/07/25 09:42:45;;;;;;;1.63;0.85;;;;;30.10;100762.00;;;;5047426;28;20573;-77
2022/07/25 09:45:14;;;;;;;3.13;1.00;;;;;30.10;100763.00;;;;5047178;28;20218;-76
2022/07/25 09:47:54;;;;;;;2.83;1.17;;;;;30.00;100766.00;;;;5047521;28;20206;-76
2022/07/25 09:50:23;;;;;;;1.52;0.75;;;;;30.10;100765.00;;;;5047769;28;20204;-76
2022/07/25 09:52:52;;;;;;;0.90;0.88;;;;;30.10;100762.00;;;;5047232;28;20676;-76
2022/07/25 09:55:19;;;;;;;2.70;1.30;;;;;30.20;100764.00;;;;5047343;28;20223;-76
2022/07/25 09:57:47;;;;;;;3.13;1.10;;;;;30.30;100769.00;;;;5037344;28;20204;-76
2022/07/25 10:00:19;;;;;;;1.38;0.90;;;;;30.30;100776.00;;;;5039945;28;20199;-76
2022/07/25 10:03:00;;;;;;;1.50;0.80;;;;;30.40;100776.00;;;;5047758;28;20261;-75
2022/07/25 10:05:38;;;;;;;5.00;1.27;;;;;30.50;100784.00;;;;5046754;28;20673;-75
2022/07/25 10:08:07;;;;;;;1.08;0.77;;;;;30.60;100785.00;;;;5047359;28;20199;-76
2022/07/25 10:10:38;;;;;;;3.47;1.00;;;;;30.70;100800.00;;;;5048121;28;20196;-76
2022/07/25 10:13:09;;;;;;;3.63;0.85;;;;;30.70;100792.00;;;;5047274;28;20203;-76
2022/07/25 10:15:45;;;;;;;4.50;0.80;;;;;30.70;100801.00;;;;5040633;28;20314;-76
2022/07/25 10:18:15;;;;;;;1.60;0.98;;;;;30.70;100797.00;;;;5028638;28;20724;-76
2022/07/25 10:20:43;;;;;;;2.75;1.10;;;;;30.70;100799.00;;;;5039016;28;20195;-76
2022/07/25 10:23:19;;;;;;;1.02;0.73;;;;;30.60;100801.00;;;;5047595;28;20196;-75
2022/07/25 10:25:46;;;;;;;1.10;0.80;;;;;30.70;100797.00;;;;5049285;28;20187;-76
2022/07/25 10:28:20;;;;;;;1.40;1.10;;;;;30.70;100807.00;;;;5047687;28;20681;-76
2022/07/25 10:30:47;;;;;;;1.23;0.63;;;;;30.80;100811.00;;;;5044785;28;20227;-76
2022/07/25 10:33:18;;;;;;;1.92;0.90;;;;;30.80;100806.00;;;;5038029;28;20203;-77
2022/07/25 10:35:46;;;;;;;1.88;0.80;;;;;30.80;100815.00;;;;5050263;28;20226;-76
2022/07/25 10:38:13;;;;;;;2.38;1.10;;;;;30.80;100821.00;;;;5051212;28;20654;-76
2022/07/25 10:40:45;;;;;;;2.72;0.82;;;;;30.80;100811.00;;;;5051267;28;20204;-76
2022/07/25 10:43:14;;;;;;;1.13;0.65;;;;;30.80;100817.00;;;;5050628;28;20298;-76
2022/07/25 10:45:43;;;;;;;4.63;1.30;;;;;30.80;100815.00;;;;5051123;28;20553;-75
2022/07/25 10:48:19;;;;;;;3.40;1.15;;;;;30.80;100814.00;;;;5045277;28;20208;-76
2022/07/25 10:50:50;;;;;;;1.50;1.00;;;;;30.80;100805.00;;;;5042864;28;20211;-76
2022/07/25 10:53:30;;;;;;;0.98;0.73;;;;;30.80;100819.00;;;;5050965;28;20670;-76
2022/07/25 10:55:59;;;;;;;1.33;0.93;;;;;31.00;100819.00;;;;5050132;28;20231;-76
2022/07/25 10:58:26;;;;;;;3.45;1.10;;;;;31.00;100821.00;;;;5050908;28;20204;-76
2022/07/25 11:00:54;;;;;;;1.92;1.00;;;;;31.00;100828.00;;;;5049768;28;20200;-76
2022/07/25 11:03:21;;;;;;;1.52;0.75;;;;;31.00;100833.00;;;;5050674;28;20204;-76
2022/07/25 11:05:53;;;;;;;2.13;0.85;;;;;31.00;100847.00;;;;5039856;28;20570;-76
2022/07/25 11:08:31;;;;;;;3.58;1.05;;;;;30.90;100856.00;;;;5031000;28;20207;-77
2022/07/25 11:10:59;;;;;;;2.22;1.23;;;;;30.90;100846.00;;;;5044568;28;20245;-76
2022/07/25 11:13:26;;;;;;;2.38;0.88;;;;;30.80;100863.00;;;;5050474;28;20202;-76
2022/07/25 11:15:57;;;;;;;3.40;0.80;;;;;30.80;100861.00;;;;5049660;28;20676;-76
2022/07/25 11:18:36;;;;;;;14.35;1.70;;;;;30.60;100856.00;;;;5050536;28;20207;-76
2022/07/25 11:21:07;;;;;;;6.65;1.27;;;;;30.60;100852.00;;;;5050267;28;20195;-76
2022/07/25 11:23:35;;;;;;;2.95;0.90;;;;;30.50;100853.00;;;;5050709;28;20681;-75
2022/07/25 11:26:07;;;;;;;3.90;1.38;;;;;30.40;100868.00;;;;5051752;28;20199;-76
2022/07/25 11:28:43;;;;;;;2.88;0.90;;;;;30.30;100862.00;;;;5050712;28;20202;-76
2022/07/25 11:31:10;;;;;;;3.60;1.25;;;;;30.30;100865.00;;;;5049381;28;20195;-76
2022/07/25 11:33:39;;;;;;;2.78;1.13;;;;;30.20;100864.00;;;;5050014;28;20196;-76
2022/07/25 11:36:09;;;;;;;3.63;1.00;;;;;30.10;100864.00;;;;5049742;28;20203;-76
2022/07/25 11:38:37;;;;;;;4.65;1.15;;;;;30.00;100863.00;;;;5049741;28;20207;-76
2022/07/25 11:41:05;;;;;;;3.47;1.15;;;;;30.00;100864.00;;;;5044208;28;20214;-76
2022/07/25 11:43:33;;;;;;;3.25;1.20;;;;;29.90;100866.00;;;;5049263;28;20191;-76
2022/07/25 11:46:03;;;;;;;3.80;1.45;;;;;29.80;100856.00;;;;5060294;28;20207;-76
2022/07/25 11:48:33;;;;;;;4.03;1.60;;;;;29.80;100863.00;;;;5049960;28;20278;-76
2022/07/25 11:51:11;;;;;;;2.05;1.27;;;;;29.60;100864.00;;;;5049189;28;20215;-78
2022/07/25 11:53:44;;;;;;;3.95;1.15;;;;;29.60;100865.00;;;;5032945;28;20203;-77
2022/07/25 11:56:17;;;;;;;4.03;1.52;;;;;29.60;100871.00;;;;5049203;28;20223;-77
2022/07/25 11:58:50;;;;;;;4.15;1.60;;;;;29.60;100872.00;;;;5049520;28;20192;-77
2022/07/25 12:01:17;;;;;;;3.90;1.50;;;;;29.50;100884.00;;;;5049156;28;20191;-77
2022/07/25 12:03:45;;;;;;;2.17;1.00;;;;;29.40;100874.00;;;;5049503;28;20195;-77
2022/07/25 12:06:14;;;;;;;3.10;1.17;;;;;29.30;100881.00;;;;5049078;28;20287;-77
2022/07/25 12:08:42;;;;;;;1.92;1.10;;;;;29.20;100879.00;;;;5049712;28;20204;-75
2022/07/25 12:11:20;;;;;;;4.90;1.55;;;;;29.00;100889.00;;;;5048819;28;20226;-77
2022/07/25 12:13:48;;;;;;;3.33;1.27;;;;;29.00;100886.00;;;;5048025;28;20199;-77
2022/07/25 12:16:16;;;;;;;2.53;1.13;;;;;28.90;100895.00;;;;5036926;28;20188;-75
2022/07/25 12:18:43;;;;;;;3.40;1.48;;;;;28.80;100884.00;;;;5049534;28;20669;-76